sensor_id;sensor_type;location;lat;lon;timestamp;P1;durP1;ratioP1;P2;durP2;ratioP2
73100;SDS011;61288;53.446;-2.266;2022-12-18T00:01:29;11.77;;;4.53;;
73100;SDS011;61288;53.446;-2.266;2022-12-18T00:04:18;13.90;;;5.25;;
73100;SDS011;61288;53.446;-2.266;2022-12-18T00:06:46;14.10;;;4.97;;
73100;SDS011;61288;53.446;-2.266;2022-12-18T00:09:12;12.43;;;4.28;;
73100;SDS011;61288;53.446;-2.266;2022-12-18T00:11:37;13.10;;;4.55;;
73100;SDS011;61288;53.446;-2.266;2022-12-18T00:14:03;12.60;;;4.20;;
73100;SDS011;61288;53.446;-2.266;2022-12-18T00:16:29;11.52;;;3.90;;
73100;SDS011;61288;53.446;-2.266;2022-12-18T00:18:58;13.73;;;4.43;;
73100;SDS011;61288;53.446;-2.266;2022-12-18T00:21:25;10.07;;;4.32;;
73100;SDS011;61288;53.446;-2.266;2022-12-18T00:23:52;13.48;;;4.43;;
73100;SDS011;61288;53.446;-2.266;2022-12-18T00:26:23;8.65;;;3.50;;
73100;SDS011;61288;53.446;-2.266;2022-12-18T00:28:50;14.10;;;4.18;;
73100;SDS011;61288;53.446;-2.266;2022-12-18T00:31:17;10.73;;;3.75;;
73100;SDS011;61288;53.446;-2.266;2022-12-18T00:33:44;11.75;;;3.40;;
73100;SDS011;61288;53.446;-2.266;2022-12-18T00:36:14;8.55;;;3.20;;
73100;SDS011;61288;53.446;-2.266;2022-12-18T00:38:42;10.20;;;3.33;;
73100;SDS011;61288;53.446;-2.266;2022-12-18T00:41:08;8.25;;;3.30;;
73100;SDS011;61288;53.446;-2.266;2022-12-18T00:43:35;10.93;;;3.38;;
73100;SDS011;61288;53.446;-2.266;2022-12-18T00:46:02;10.55;;;3.25;;
73100;SDS011;61288;53.446;-2.266;2022-12-18T00:48:28;9.65;;;3.58;;
73100;SDS011;61288;53.446;-2.266;2022-12-18T00:50:54;10.60;;;3.20;;
73100;SDS011;61288;53.446;-2.266;2022-12-18T00:53:20;8.85;;;3.33;;
73100;SDS011;61288;53.446;-2.266;2022-12-18T00:55:45;10.10;;;2.90;;
73100;SDS011;61288;53.446;-2.266;2022-12-18T00:58:12;8.82;;;2.72;;
73100;SDS011;61288;53.446;-2.266;2022-12-18T01:00:40;11.02;;;2.83;;
73100;SDS011;61288;53.446;-2.266;2022-12-18T01:03:07;11.30;;;3.58;;
73100;SDS011;61288;53.446;-2.266;2022-12-18T01:05:32;9.43;;;3.08;;
73100;SDS011;61288;53.446;-2.266;2022-12-18T01:07:58;8.65;;;2.85;;
73100;SDS011;61288;53.446;-2.266;2022-12-18T01:10:25;9.45;;;3.00;;
73100;SDS011;61288;53.446;-2.266;2022-12-18T01:12:51;9.10;;;3.20;;
73100;SDS011;61288;53.446;-2.266;2022-12-18T01:15:18;6.28;;;2.53;;
73100;SDS011;61288;53.446;-2.266;2022-12-18T01:17:44;8.60;;;2.83;;
73100;SDS011;61288;53.446;-2.266;2022-12-18T01:20:10;8.57;;;2.97;;
73100;SDS011;61288;53.446;-2.266;2022-12-18T01:22:37;7.80;;;2.40;;
73100;SDS011;61288;53.446;-2.266;2022-12-18T01:25:03;8.20;;;3.38;;
73100;SDS011;61288;53.446;-2.266;2022-12-18T01:27:29;10.10;;;3.35;;
73100;SDS011;61288;53.446;-2.266;2022-12-18T01:29:55;10.55;;;3.25;;
73100;SDS011;61288;53.446;-2.266;2022-12-18T01:32:20;8.65;;;3.15;;
73100;SDS011;61288;53.446;-2.266;2022-12-18T01:34:46;11.75;;;3.30;;
73100;SDS011;61288;53.446;-2.266;2022-12-18T01:37:12;10.88;;;2.90;;
73100;SDS011;61288;53.446;-2.266;2022-12-18T01:39:38;10.18;;;3.30;;
73100;SDS011;61288;53.446;-2.266;2022-12-18T01:42:10;10.38;;;3.20;;
73100;SDS011;61288;53.446;-2.266;2022-12-18T01:45:00;7.97;;;2.78;;
73100;SDS011;61288;53.446;-2.266;2022-12-18T01:50:02;8.68;;;2.75;;
73100;SDS011;61288;53.446;-2.266;2022-12-18T01:52:31;8.35;;;2.85;;
73100;SDS011;61288;53.446;-2.266;2022-12-18T01:54:58;9.32;;;3.03;;
73100;SDS011;61288;53.446;-2.266;2022-12-18T01:57:25;10.45;;;2.95;;
73100;SDS011;61288;53.446;-2.266;2022-12-18T01:59:53;10.30;;;2.80;;
73100;SDS011;61288;53.446;-2.266;2022-12-18T02:02:24;11.27;;;3.30;;
73100;SDS011;61288;53.446;-2.266;2022-12-18T02:04:53;10.02;;;3.00;;
73100;SDS011;61288;53.446;-2.266;2022-12-18T02:12:42;8.52;;;3.10;;
73100;SDS011;61288;53.446;-2.266;2022-12-18T02:15:20;8.15;;;2.70;;
73100;SDS011;61288;53.446;-2.266;2022-12-18T02:17:56;8.73;;;2.70;;
73100;SDS011;61288;53.446;-2.266;2022-12-18T02:20:32;11.27;;;3.08;;
73100;SDS011;61288;53.446;-2.266;2022-12-18T02:28:16;11.55;;;2.85;;
73100;SDS011;61288;53.446;-2.266;2022-12-18T02:30:47;7.72;;;2.60;;
73100;SDS011;61288;53.446;-2.266;2022-12-18T02:33:16;8.50;;;2.72;;
73100;SDS011;61288;53.446;-2.266;2022-12-18T02:35:46;8.55;;;2.90;;
73100;SDS011;61288;53.446;-2.266;2022-12-18T02:38:14;7.53;;;2.65;;
73100;SDS011;61288;53.446;-2.266;2022-12-18T02:40:41;6.55;;;2.30;;
73100;SDS011;61288;53.446;-2.266;2022-12-18T02:43:09;8.80;;;2.60;;
73100;SDS011;61288;53.446;-2.266;2022-12-18T02:45:47;10.50;;;2.70;;
73100;SDS011;61288;53.446;-2.266;2022-12-18T02:48:28;7.43;;;2.35;;
73100;SDS011;61288;53.446;-2.266;2022-12-18T02:53:34;8.05;;;2.72;;
73100;SDS011;61288;53.446;-2.266;2022-12-18T02:56:16;7.50;;;2.70;;
73100;SDS011;61288;53.446;-2.266;2022-12-18T03:01:22;7.95;;;3.10;;
73100;SDS011;61288;53.446;-2.266;2022-12-18T03:03:58;7.25;;;2.30;;
73100;SDS011;61288;53.446;-2.266;2022-12-18T03:06:43;9.90;;;2.33;;
73100;SDS011;61288;53.446;-2.266;2022-12-18T03:09:20;7.50;;;2.30;;
73100;SDS011;61288;53.446;-2.266;2022-12-18T03:11:55;9.32;;;2.85;;
73100;SDS011;61288;53.446;-2.266;2022-12-18T03:14:42;8.38;;;3.42;;
73100;SDS011;61288;53.446;-2.266;2022-12-18T03:17:14;9.10;;;2.47;;
73100;SDS011;61288;53.446;-2.266;2022-12-18T03:19:45;7.72;;;2.45;;
73100;SDS011;61288;53.446;-2.266;2022-12-18T03:22:12;7.70;;;2.60;;
73100;SDS011;61288;53.446;-2.266;2022-12-18T03:24:40;7.85;;;2.58;;
73100;SDS011;61288;53.446;-2.266;2022-12-18T03:27:10;9.07;;;2.85;;
73100;SDS011;61288;53.446;-2.266;2022-12-18T03:29:42;8.70;;;2.60;;
73100;SDS011;61288;53.446;-2.266;2022-12-18T03:32:16;6.43;;;2.25;;
73100;SDS011;61288;53.446;-2.266;2022-12-18T03:34:49;8.52;;;2.95;;
73100;SDS011;61288;53.446;-2.266;2022-12-18T03:37:19;7.97;;;2.70;;
73100;SDS011;61288;53.446;-2.266;2022-12-18T03:39:45;9.07;;;2.90;;
73100;SDS011;61288;53.446;-2.266;2022-12-18T03:44:52;9.43;;;3.00;;
73100;SDS011;61288;53.446;-2.266;2022-12-18T03:47:33;10.85;;;3.20;;
73100;SDS011;61288;53.446;-2.266;2022-12-18T03:50:12;13.13;;;3.53;;
73100;SDS011;61288;53.446;-2.266;2022-12-18T03:52:52;8.55;;;3.00;;
73100;SDS011;61288;53.446;-2.266;2022-12-18T03:55:34;11.32;;;2.95;;
73100;SDS011;61288;53.446;-2.266;2022-12-18T03:58:01;11.48;;;3.42;;
73100;SDS011;61288;53.446;-2.266;2022-12-18T04:00:31;9.73;;;3.40;;
73100;SDS011;61288;53.446;-2.266;2022-12-18T04:02:59;10.90;;;3.20;;
73100;SDS011;61288;53.446;-2.266;2022-12-18T04:05:27;10.93;;;3.10;;
73100;SDS011;61288;53.446;-2.266;2022-12-18T04:07:55;10.50;;;3.10;;
73100;SDS011;61288;53.446;-2.266;2022-12-18T04:10:22;9.65;;;2.95;;
73100;SDS011;61288;53.446;-2.266;2022-12-18T04:12:48;7.47;;;2.45;;
73100;SDS011;61288;53.446;-2.266;2022-12-18T04:15:13;10.00;;;3.10;;
73100;SDS011;61288;53.446;-2.266;2022-12-18T04:17:42;10.82;;;3.45;;
73100;SDS011;61288;53.446;-2.266;2022-12-18T04:20:12;10.00;;;3.35;;
73100;SDS011;61288;53.446;-2.266;2022-12-18T04:22:37;11.13;;;3.20;;
73100;SDS011;61288;53.446;-2.266;2022-12-18T04:25:03;9.75;;;3.00;;
73100;SDS011;61288;53.446;-2.266;2022-12-18T04:27:29;10.05;;;3.10;;
73100;SDS011;61288;53.446;-2.266;2022-12-18T04:29:55;9.73;;;3.08;;
73100;SDS011;61288;53.446;-2.266;2022-12-18T04:32:22;9.38;;;3.05;;
73100;SDS011;61288;53.446;-2.266;2022-12-18T04:34:48;12.30;;;3.85;;
73100;SDS011;61288;53.446;-2.266;2022-12-18T04:37:14;10.70;;;3.05;;
73100;SDS011;61288;53.446;-2.266;2022-12-18T04:39:40;11.68;;;3.55;;
73100;SDS011;61288;53.446;-2.266;2022-12-18T04:42:06;12.00;;;3.22;;
73100;SDS011;61288;53.446;-2.266;2022-12-18T04:44:31;9.13;;;3.50;;
73100;SDS011;61288;53.446;-2.266;2022-12-18T04:47:10;10.48;;;3.28;;
73100;SDS011;61288;53.446;-2.266;2022-12-18T04:49:37;10.77;;;3.30;;
73100;SDS011;61288;53.446;-2.266;2022-12-18T04:52:03;10.32;;;3.15;;
73100;SDS011;61288;53.446;-2.266;2022-12-18T04:54:33;11.10;;;3.63;;
73100;SDS011;61288;53.446;-2.266;2022-12-18T04:57:00;10.18;;;3.60;;
73100;SDS011;61288;53.446;-2.266;2022-12-18T04:59:25;10.65;;;3.58;;
73100;SDS011;61288;53.446;-2.266;2022-12-18T05:01:50;12.82;;;3.47;;
73100;SDS011;61288;53.446;-2.266;2022-12-18T05:04:16;11.38;;;3.53;;
73100;SDS011;61288;53.446;-2.266;2022-12-18T05:06:41;11.77;;;3.42;;
73100;SDS011;61288;53.446;-2.266;2022-12-18T05:09:07;11.30;;;3.97;;
73100;SDS011;61288;53.446;-2.266;2022-12-18T05:11:33;13.18;;;4.35;;
73100;SDS011;61288;53.446;-2.266;2022-12-18T05:13:58;11.85;;;4.50;;
73100;SDS011;61288;53.446;-2.266;2022-12-18T05:16:24;12.65;;;4.57;;
73100;SDS011;61288;53.446;-2.266;2022-12-18T05:18:50;10.77;;;4.55;;
73100;SDS011;61288;53.446;-2.266;2022-12-18T05:21:16;11.45;;;4.47;;
73100;SDS011;61288;53.446;-2.266;2022-12-18T05:23:41;11.25;;;3.90;;
73100;SDS011;61288;53.446;-2.266;2022-12-18T05:26:08;13.65;;;4.35;;
73100;SDS011;61288;53.446;-2.266;2022-12-18T05:28:35;13.05;;;3.97;;
73100;SDS011;61288;53.446;-2.266;2022-12-18T05:33:36;11.95;;;4.55;;
73100;SDS011;61288;53.446;-2.266;2022-12-18T05:36:03;14.68;;;5.00;;
73100;SDS011;61288;53.446;-2.266;2022-12-18T05:38:31;15.27;;;5.30;;
73100;SDS011;61288;53.446;-2.266;2022-12-18T05:40:58;14.45;;;5.53;;
73100;SDS011;61288;53.446;-2.266;2022-12-18T05:43:24;16.40;;;6.75;;
73100;SDS011;61288;53.446;-2.266;2022-12-18T05:45:51;19.10;;;6.07;;
73100;SDS011;61288;53.446;-2.266;2022-12-18T05:48:18;16.77;;;5.22;;
73100;SDS011;61288;53.446;-2.266;2022-12-18T05:50:45;16.75;;;6.68;;
73100;SDS011;61288;53.446;-2.266;2022-12-18T05:53:12;16.42;;;5.78;;
73100;SDS011;61288;53.446;-2.266;2022-12-18T05:55:39;19.13;;;5.97;;
73100;SDS011;61288;53.446;-2.266;2022-12-18T05:58:08;15.15;;;6.57;;
73100;SDS011;61288;53.446;-2.266;2022-12-18T06:00:36;17.58;;;6.25;;
73100;SDS011;61288;53.446;-2.266;2022-12-18T06:03:10;19.27;;;6.68;;
73100;SDS011;61288;53.446;-2.266;2022-12-18T06:05:38;18.27;;;6.70;;
73100;SDS011;61288;53.446;-2.266;2022-12-18T06:08:05;17.23;;;6.22;;
73100;SDS011;61288;53.446;-2.266;2022-12-18T06:10:31;15.60;;;5.80;;
73100;SDS011;61288;53.446;-2.266;2022-12-18T06:12:58;18.77;;;7.05;;
73100;SDS011;61288;53.446;-2.266;2022-12-18T06:15:23;17.70;;;5.93;;
73100;SDS011;61288;53.446;-2.266;2022-12-18T06:17:49;19.60;;;6.18;;
73100;SDS011;61288;53.446;-2.266;2022-12-18T06:20:15;20.27;;;7.22;;
73100;SDS011;61288;53.446;-2.266;2022-12-18T06:22:41;21.42;;;6.72;;
73100;SDS011;61288;53.446;-2.266;2022-12-18T06:25:07;23.42;;;6.95;;
73100;SDS011;61288;53.446;-2.266;2022-12-18T06:27:32;21.85;;;8.48;;
73100;SDS011;61288;53.446;-2.266;2022-12-18T06:29:59;25.67;;;8.25;;
73100;SDS011;61288;53.446;-2.266;2022-12-18T06:32:26;22.52;;;7.75;;
73100;SDS011;61288;53.446;-2.266;2022-12-18T06:34:52;27.90;;;8.32;;
73100;SDS011;61288;53.446;-2.266;2022-12-18T06:37:20;26.60;;;9.23;;
73100;SDS011;61288;53.446;-2.266;2022-12-18T06:39:50;29.42;;;9.30;;
73100;SDS011;61288;53.446;-2.266;2022-12-18T06:42:15;28.38;;;8.80;;
73100;SDS011;61288;53.446;-2.266;2022-12-18T06:44:41;29.08;;;9.00;;
73100;SDS011;61288;53.446;-2.266;2022-12-18T06:47:06;26.30;;;8.48;;
73100;SDS011;61288;53.446;-2.266;2022-12-18T06:49:32;23.33;;;8.13;;
73100;SDS011;61288;53.446;-2.266;2022-12-18T06:51:57;24.75;;;8.88;;
73100;SDS011;61288;53.446;-2.266;2022-12-18T06:54:23;27.35;;;8.60;;
73100;SDS011;61288;53.446;-2.266;2022-12-18T06:56:48;21.42;;;8.00;;
73100;SDS011;61288;53.446;-2.266;2022-12-18T06:59:14;22.50;;;7.47;;
73100;SDS011;61288;53.446;-2.266;2022-12-18T07:01:39;22.20;;;7.65;;
73100;SDS011;61288;53.446;-2.266;2022-12-18T07:04:05;20.95;;;6.70;;
73100;SDS011;61288;53.446;-2.266;2022-12-18T07:06:30;23.30;;;7.88;;
73100;SDS011;61288;53.446;-2.266;2022-12-18T07:08:56;23.77;;;7.60;;
73100;SDS011;61288;53.446;-2.266;2022-12-18T07:11:22;28.27;;;8.65;;
73100;SDS011;61288;53.446;-2.266;2022-12-18T07:13:49;28.63;;;8.70;;
73100;SDS011;61288;53.446;-2.266;2022-12-18T07:16:15;22.05;;;7.78;;
73100;SDS011;61288;53.446;-2.266;2022-12-18T07:18:43;27.27;;;9.00;;
73100;SDS011;61288;53.446;-2.266;2022-12-18T07:21:10;25.63;;;8.38;;
73100;SDS011;61288;53.446;-2.266;2022-12-18T07:23:37;23.73;;;7.78;;
73100;SDS011;61288;53.446;-2.266;2022-12-18T07:26:04;20.42;;;7.28;;
73100;SDS011;61288;53.446;-2.266;2022-12-18T07:28:32;26.55;;;8.23;;
73100;SDS011;61288;53.446;-2.266;2022-12-18T07:31:01;24.83;;;7.90;;
73100;SDS011;61288;53.446;-2.266;2022-12-18T07:33:31;25.27;;;9.30;;
73100;SDS011;61288;53.446;-2.266;2022-12-18T07:35:58;23.75;;;8.65;;
73100;SDS011;61288;53.446;-2.266;2022-12-18T07:38:24;27.70;;;9.65;;
73100;SDS011;61288;53.446;-2.266;2022-12-18T07:40:49;21.27;;;7.63;;
73100;SDS011;61288;53.446;-2.266;2022-12-18T07:43:15;27.77;;;9.07;;
73100;SDS011;61288;53.446;-2.266;2022-12-18T07:45:42;30.23;;;9.38;;
73100;SDS011;61288;53.446;-2.266;2022-12-18T07:48:08;28.73;;;9.40;;
73100;SDS011;61288;53.446;-2.266;2022-12-18T07:50:33;27.15;;;9.85;;
73100;SDS011;61288;53.446;-2.266;2022-12-18T07:52:59;30.33;;;9.90;;
73100;SDS011;61288;53.446;-2.266;2022-12-18T07:55:28;28.05;;;10.02;;
73100;SDS011;61288;53.446;-2.266;2022-12-18T07:57:55;36.15;;;10.40;;
73100;SDS011;61288;53.446;-2.266;2022-12-18T08:00:21;25.92;;;9.93;;
73100;SDS011;61288;53.446;-2.266;2022-12-18T08:02:46;30.63;;;9.07;;
73100;SDS011;61288;53.446;-2.266;2022-12-18T08:05:12;28.95;;;9.07;;
73100;SDS011;61288;53.446;-2.266;2022-12-18T08:07:38;29.83;;;9.82;;
73100;SDS011;61288;53.446;-2.266;2022-12-18T08:10:05;28.55;;;9.90;;
73100;SDS011;61288;53.446;-2.266;2022-12-18T08:12:31;29.08;;;9.63;;
73100;SDS011;61288;53.446;-2.266;2022-12-18T08:14:57;29.30;;;9.43;;
73100;SDS011;61288;53.446;-2.266;2022-12-18T08:17:23;28.92;;;9.48;;
73100;SDS011;61288;53.446;-2.266;2022-12-18T08:19:49;29.15;;;9.93;;
73100;SDS011;61288;53.446;-2.266;2022-12-18T08:22:14;28.35;;;9.82;;
73100;SDS011;61288;53.446;-2.266;2022-12-18T08:24:40;33.97;;;9.90;;
73100;SDS011;61288;53.446;-2.266;2022-12-18T08:27:05;26.40;;;8.95;;
73100;SDS011;61288;53.446;-2.266;2022-12-18T08:29:31;30.50;;;9.63;;
73100;SDS011;61288;53.446;-2.266;2022-12-18T08:31:58;26.50;;;8.93;;
73100;SDS011;61288;53.446;-2.266;2022-12-18T08:34:23;28.25;;;9.70;;
73100;SDS011;61288;53.446;-2.266;2022-12-18T08:36:49;26.45;;;9.75;;
73100;SDS011;61288;53.446;-2.266;2022-12-18T08:39:14;34.97;;;10.70;;
73100;SDS011;61288;53.446;-2.266;2022-12-18T08:41:40;27.58;;;9.52;;
73100;SDS011;61288;53.446;-2.266;2022-12-18T08:44:07;32.60;;;10.32;;
73100;SDS011;61288;53.446;-2.266;2022-12-18T08:46:52;29.83;;;9.75;;
73100;SDS011;61288;53.446;-2.266;2022-12-18T08:49:17;28.05;;;9.25;;
73100;SDS011;61288;53.446;-2.266;2022-12-18T08:51:43;28.60;;;9.20;;
73100;SDS011;61288;53.446;-2.266;2022-12-18T08:54:10;29.52;;;9.73;;
73100;SDS011;61288;53.446;-2.266;2022-12-18T08:56:37;29.92;;;9.23;;
73100;SDS011;61288;53.446;-2.266;2022-12-18T08:59:03;30.70;;;11.38;;
73100;SDS011;61288;53.446;-2.266;2022-12-18T09:01:29;31.27;;;10.15;;
73100;SDS011;61288;53.446;-2.266;2022-12-18T09:03:55;27.92;;;10.13;;
73100;SDS011;61288;53.446;-2.266;2022-12-18T09:06:21;34.30;;;10.80;;
73100;SDS011;61288;53.446;-2.266;2022-12-18T09:08:48;29.10;;;8.60;;
73100;SDS011;61288;53.446;-2.266;2022-12-18T09:11:24;30.95;;;10.05;;
73100;SDS011;61288;53.446;-2.266;2022-12-18T09:13:52;30.60;;;11.20;;
73100;SDS011;61288;53.446;-2.266;2022-12-18T09:16:19;29.30;;;9.50;;
73100;SDS011;61288;53.446;-2.266;2022-12-18T09:18:45;29.17;;;9.32;;
73100;SDS011;61288;53.446;-2.266;2022-12-18T09:21:13;29.95;;;9.27;;
73100;SDS011;61288;53.446;-2.266;2022-12-18T09:23:40;29.95;;;9.13;;
73100;SDS011;61288;53.446;-2.266;2022-12-18T09:26:06;25.58;;;8.45;;
73100;SDS011;61288;53.446;-2.266;2022-12-18T09:28:34;24.77;;;9.57;;
73100;SDS011;61288;53.446;-2.266;2022-12-18T09:31:05;25.02;;;8.25;;
73100;SDS011;61288;53.446;-2.266;2022-12-18T09:33:34;26.48;;;9.20;;
73100;SDS011;61288;53.446;-2.266;2022-12-18T09:36:02;28.58;;;9.18;;
73100;SDS011;61288;53.446;-2.266;2022-12-18T09:38:29;30.77;;;8.45;;
73100;SDS011;61288;53.446;-2.266;2022-12-18T09:40:57;25.13;;;9.20;;
73100;SDS011;61288;53.446;-2.266;2022-12-18T09:46:10;29.23;;;9.07;;
73100;SDS011;61288;53.446;-2.266;2022-12-18T09:51:22;25.38;;;8.10;;
73100;SDS011;61288;53.446;-2.266;2022-12-18T09:53:53;25.80;;;8.90;;
73100;SDS011;61288;53.446;-2.266;2022-12-18T09:56:33;25.42;;;8.50;;
73100;SDS011;61288;53.446;-2.266;2022-12-18T09:59:02;24.55;;;8.38;;
73100;SDS011;61288;53.446;-2.266;2022-12-18T10:01:29;27.55;;;8.38;;
73100;SDS011;61288;53.446;-2.266;2022-12-18T10:03:56;26.10;;;9.13;;
73100;SDS011;61288;53.446;-2.266;2022-12-18T10:19:54;23.52;;;7.45;;
73100;SDS011;61288;53.446;-2.266;2022-12-18T10:27:42;28.30;;;8.48;;
73100;SDS011;61288;53.446;-2.266;2022-12-18T10:30:12;30.30;;;8.73;;
73100;SDS011;61288;53.446;-2.266;2022-12-18T10:32:40;26.00;;;8.23;;
73100;SDS011;61288;53.446;-2.266;2022-12-18T10:35:08;22.92;;;7.60;;
73100;SDS011;61288;53.446;-2.266;2022-12-18T10:38:44;27.38;;;7.40;;
73100;SDS011;61288;53.446;-2.266;2022-12-18T10:46:12;22.25;;;8.00;;
73100;SDS011;61288;53.446;-2.266;2022-12-18T10:54:03;20.52;;;7.05;;
73100;SDS011;61288;53.446;-2.266;2022-12-18T10:56:48;25.25;;;7.78;;
73100;SDS011;61288;53.446;-2.266;2022-12-18T10:59:15;23.70;;;8.32;;
73100;SDS011;61288;53.446;-2.266;2022-12-18T11:01:52;24.30;;;7.35;;
73100;SDS011;61288;53.446;-2.266;2022-12-18T11:04:22;26.30;;;8.38;;
73100;SDS011;61288;53.446;-2.266;2022-12-18T11:06:52;24.88;;;7.95;;
73100;SDS011;61288;53.446;-2.266;2022-12-18T11:09:22;24.45;;;8.43;;
73100;SDS011;61288;53.446;-2.266;2022-12-18T11:11:50;23.02;;;8.02;;
73100;SDS011;61288;53.446;-2.266;2022-12-18T11:14:30;24.17;;;7.78;;
73100;SDS011;61288;53.446;-2.266;2022-12-18T11:17:00;26.45;;;8.90;;
73100;SDS011;61288;53.446;-2.266;2022-12-18T11:22:02;22.75;;;8.30;;
73100;SDS011;61288;53.446;-2.266;2022-12-18T11:24:49;21.83;;;8.00;;
73100;SDS011;61288;53.446;-2.266;2022-12-18T11:27:22;26.10;;;8.27;;
73100;SDS011;61288;53.446;-2.266;2022-12-18T11:29:49;25.67;;;8.75;;
73100;SDS011;61288;53.446;-2.266;2022-12-18T11:37:54;27.98;;;8.15;;
73100;SDS011;61288;53.446;-2.266;2022-12-18T11:40:28;24.73;;;9.35;;
73100;SDS011;61288;53.446;-2.266;2022-12-18T11:42:59;26.60;;;8.23;;
73100;SDS011;61288;53.446;-2.266;2022-12-18T11:45:29;22.00;;;7.68;;
73100;SDS011;61288;53.446;-2.266;2022-12-18T11:48:18;22.02;;;8.02;;
73100;SDS011;61288;53.446;-2.266;2022-12-18T11:50:52;24.77;;;7.85;;
73100;SDS011;61288;53.446;-2.266;2022-12-18T11:53:19;22.45;;;8.40;;
73100;SDS011;61288;53.446;-2.266;2022-12-18T11:58:40;26.48;;;8.68;;
73100;SDS011;61288;53.446;-2.266;2022-12-18T12:17:56;22.42;;;6.85;;
73100;SDS011;61288;53.446;-2.266;2022-12-18T12:26:01;20.77;;;6.97;;
73100;SDS011;61288;53.446;-2.266;2022-12-18T12:39:33;19.40;;;6.53;;
73100;SDS011;61288;53.446;-2.266;2022-12-18T12:44:54;19.30;;;6.82;;
73100;SDS011;61288;53.446;-2.266;2022-12-18T12:47:25;23.30;;;7.63;;
73100;SDS011;61288;53.446;-2.266;2022-12-18T12:49:56;19.55;;;6.82;;
73100;SDS011;61288;53.446;-2.266;2022-12-18T12:52:30;21.50;;;7.15;;
73100;SDS011;61288;53.446;-2.266;2022-12-18T12:55:02;25.42;;;8.05;;
73100;SDS011;61288;53.446;-2.266;2022-12-18T12:57:40;24.08;;;8.05;;
73100;SDS011;61288;53.446;-2.266;2022-12-18T13:08:06;23.25;;;6.85;;
73100;SDS011;61288;53.446;-2.266;2022-12-18T13:10:40;21.58;;;6.93;;
73100;SDS011;61288;53.446;-2.266;2022-12-18T13:13:08;20.55;;;7.93;;
73100;SDS011;61288;53.446;-2.266;2022-12-18T13:18:29;18.73;;;6.43;;
73100;SDS011;61288;53.446;-2.266;2022-12-18T13:21:03;20.75;;;7.50;;
73100;SDS011;61288;53.446;-2.266;2022-12-18T13:23:41;17.88;;;6.65;;
73100;SDS011;61288;53.446;-2.266;2022-12-18T13:33:57;17.98;;;6.63;;
73100;SDS011;61288;53.446;-2.266;2022-12-18T13:36:35;17.42;;;6.50;;
73100;SDS011;61288;53.446;-2.266;2022-12-18T13:41:38;18.45;;;6.15;;
73100;SDS011;61288;53.446;-2.266;2022-12-18T13:46:51;23.27;;;8.05;;
73100;SDS011;61288;53.446;-2.266;2022-12-18T13:49:25;16.88;;;6.10;;
73100;SDS011;61288;53.446;-2.266;2022-12-18T13:51:53;18.75;;;6.85;;
73100;SDS011;61288;53.446;-2.266;2022-12-18T13:54:22;18.50;;;6.53;;
73100;SDS011;61288;53.446;-2.266;2022-12-18T13:57:01;21.50;;;6.80;;
73100;SDS011;61288;53.446;-2.266;2022-12-18T13:59:34;21.90;;;7.13;;
73100;SDS011;61288;53.446;-2.266;2022-12-18T14:02:13;19.52;;;6.75;;
73100;SDS011;61288;53.446;-2.266;2022-12-18T14:04:41;18.90;;;7.47;;
73100;SDS011;61288;53.446;-2.266;2022-12-18T14:07:27;20.80;;;7.40;;
73100;SDS011;61288;53.446;-2.266;2022-12-18T14:09:58;23.50;;;7.50;;
73100;SDS011;61288;53.446;-2.266;2022-12-18T14:12:34;19.83;;;7.38;;
73100;SDS011;61288;53.446;-2.266;2022-12-18T14:17:56;19.38;;;7.55;;
73100;SDS011;61288;53.446;-2.266;2022-12-18T14:20:47;22.27;;;8.07;;
73100;SDS011;61288;53.446;-2.266;2022-12-18T14:25:53;28.13;;;9.70;;
73100;SDS011;61288;53.446;-2.266;2022-12-18T14:28:18;26.67;;;9.18;;
73100;SDS011;61288;53.446;-2.266;2022-12-18T14:30:44;23.77;;;9.05;;
73100;SDS011;61288;53.446;-2.266;2022-12-18T14:33:12;23.15;;;8.35;;
73100;SDS011;61288;53.446;-2.266;2022-12-18T14:35:42;26.38;;;8.50;;
73100;SDS011;61288;53.446;-2.266;2022-12-18T14:40:47;25.98;;;8.68;;
73100;SDS011;61288;53.446;-2.266;2022-12-18T14:43:18;25.00;;;8.88;;
73100;SDS011;61288;53.446;-2.266;2022-12-18T14:45:44;24.55;;;8.23;;
73100;SDS011;61288;53.446;-2.266;2022-12-18T14:48:21;22.60;;;9.18;;
73100;SDS011;61288;53.446;-2.266;2022-12-18T14:53:37;25.83;;;8.85;;
73100;SDS011;61288;53.446;-2.266;2022-12-18T14:56:14;22.60;;;8.55;;
73100;SDS011;61288;53.446;-2.266;2022-12-18T14:58:44;22.85;;;8.60;;
73100;SDS011;61288;53.446;-2.266;2022-12-18T15:01:19;22.35;;;8.40;;
73100;SDS011;61288;53.446;-2.266;2022-12-18T15:03:51;24.48;;;7.95;;
73100;SDS011;61288;53.446;-2.266;2022-12-18T15:06:21;20.75;;;7.25;;
73100;SDS011;61288;53.446;-2.266;2022-12-18T15:09:00;18.40;;;7.30;;
73100;SDS011;61288;53.446;-2.266;2022-12-18T15:14:22;17.13;;;6.75;;
73100;SDS011;61288;53.446;-2.266;2022-12-18T15:17:00;16.70;;;6.00;;
73100;SDS011;61288;53.446;-2.266;2022-12-18T15:19:34;16.38;;;6.25;;
73100;SDS011;61288;53.446;-2.266;2022-12-18T15:22:04;14.93;;;5.32;;
73100;SDS011;61288;53.446;-2.266;2022-12-18T15:24:42;15.65;;;5.85;;
73100;SDS011;61288;53.446;-2.266;2022-12-18T15:27:18;15.77;;;6.30;;
73100;SDS011;61288;53.446;-2.266;2022-12-18T15:29:59;14.50;;;5.35;;
73100;SDS011;61288;53.446;-2.266;2022-12-18T15:32:26;15.50;;;5.30;;
73100;SDS011;61288;53.446;-2.266;2022-12-18T15:35:02;12.20;;;4.80;;
73100;SDS011;61288;53.446;-2.266;2022-12-18T15:37:48;13.52;;;5.00;;
73100;SDS011;61288;53.446;-2.266;2022-12-18T15:40:17;12.50;;;4.10;;
73100;SDS011;61288;53.446;-2.266;2022-12-18T15:42:47;12.57;;;4.60;;
73100;SDS011;61288;53.446;-2.266;2022-12-18T15:45:32;12.57;;;4.13;;
73100;SDS011;61288;53.446;-2.266;2022-12-18T15:47:58;11.93;;;4.22;;
73100;SDS011;61288;53.446;-2.266;2022-12-18T15:50:24;11.88;;;4.35;;
73100;SDS011;61288;53.446;-2.266;2022-12-18T15:52:53;10.20;;;3.63;;
73100;SDS011;61288;53.446;-2.266;2022-12-18T15:55:21;9.45;;;3.50;;
73100;SDS011;61288;53.446;-2.266;2022-12-18T15:58:07;9.73;;;3.30;;
73100;SDS011;61288;53.446;-2.266;2022-12-18T16:00:34;9.80;;;3.03;;
73100;SDS011;61288;53.446;-2.266;2022-12-18T16:03:03;11.55;;;3.90;;
73100;SDS011;61288;53.446;-2.266;2022-12-18T16:05:30;10.52;;;3.75;;
73100;SDS011;61288;53.446;-2.266;2022-12-18T16:07:56;11.15;;;4.25;;
73100;SDS011;61288;53.446;-2.266;2022-12-18T16:10:22;9.65;;;3.90;;
73100;SDS011;61288;53.446;-2.266;2022-12-18T16:12:49;10.88;;;3.90;;
73100;SDS011;61288;53.446;-2.266;2022-12-18T16:15:15;10.30;;;3.88;;
73100;SDS011;61288;53.446;-2.266;2022-12-18T16:17:41;9.68;;;3.10;;
73100;SDS011;61288;53.446;-2.266;2022-12-18T16:20:18;9.25;;;3.33;;
73100;SDS011;61288;53.446;-2.266;2022-12-18T16:22:46;9.65;;;3.38;;
73100;SDS011;61288;53.446;-2.266;2022-12-18T16:25:17;10.15;;;3.75;;
73100;SDS011;61288;53.446;-2.266;2022-12-18T16:27:50;10.35;;;3.70;;
73100;SDS011;61288;53.446;-2.266;2022-12-18T16:30:17;9.65;;;3.40;;
73100;SDS011;61288;53.446;-2.266;2022-12-18T16:32:45;9.60;;;3.88;;
73100;SDS011;61288;53.446;-2.266;2022-12-18T16:35:11;11.27;;;3.67;;
73100;SDS011;61288;53.446;-2.266;2022-12-18T16:37:38;11.65;;;3.53;;
73100;SDS011;61288;53.446;-2.266;2022-12-18T16:40:05;8.55;;;3.10;;
73100;SDS011;61288;53.446;-2.266;2022-12-18T16:42:35;10.52;;;3.58;;
73100;SDS011;61288;53.446;-2.266;2022-12-18T16:45:01;9.45;;;2.97;;
73100;SDS011;61288;53.446;-2.266;2022-12-18T16:47:28;9.25;;;3.17;;
73100;SDS011;61288;53.446;-2.266;2022-12-18T16:49:53;11.70;;;3.90;;
73100;SDS011;61288;53.446;-2.266;2022-12-18T16:52:19;10.27;;;3.58;;
73100;SDS011;61288;53.446;-2.266;2022-12-18T16:54:47;10.30;;;3.60;;
73100;SDS011;61288;53.446;-2.266;2022-12-18T16:57:17;10.57;;;3.55;;
73100;SDS011;61288;53.446;-2.266;2022-12-18T17:00:00;10.50;;;3.33;;